Flight Track Log - Related Links

Times and Time Zones

All times are in EDT time to prevent confusion due to time zone crossing. See the UAL978 flight status page for this flight to view local times or setup timezone preferences in your user account.

Time Position Orientation Groundspeed Altitude Reporting Facility
EDT Latitude Longitude Course Direction KTS MPH feet Rate Location/Type
Sun 04:33:00 AM -23.3500 -46.5547 316° Northwest  Level Estimated
Sun 04:34:00 AM -23.2678 -46.6397 316° Northwest  Level Estimated
Sun 04:35:00 AM -23.1856 -46.7247 316° Northwest  Level Estimated
Sun 04:36:00 AM -23.1033 -46.8095 317° Northwest  Level Estimated
Sun 04:37:00 AM -23.0210 -46.8943 317° Northwest  Level Estimated
Sun 04:38:00 AM -22.9386 -46.9789 317° Northwest  Level Estimated
Sun 04:39:00 AM -22.8562 -47.0635 317° Northwest  Level Estimated
Sun 04:40:00 AM -22.7738 -47.1479 317° Northwest  Level Estimated
Sun 04:41:00 AM -22.6913 -47.2322 317° Northwest  Level Estimated
Sun 04:42:00 AM -22.6088 -47.3165 317° Northwest  Level Estimated
Sun 04:43:00 AM -22.5262 -47.4006 317° Northwest  Level Estimated
Sun 04:44:00 AM -22.4436 -47.4846 317° Northwest  Level Estimated
Sun 04:45:00 AM -22.3609 -47.5686 317° Northwest  Level Estimated
Sun 04:46:00 AM -22.2782 -47.6524 317° Northwest  Level Estimated
Sun 04:47:00 AM -22.1954 -47.7361 317° Northwest  Level Estimated
Sun 04:48:00 AM -22.1126 -47.8197 317° Northwest  Level Estimated
Sun 04:49:00 AM -22.0298 -47.9033 317° Northwest  Level Estimated
Sun 04:50:00 AM -21.9469 -47.9867 317° Northwest  Level Estimated
Sun 04:51:00 AM -21.8640 -48.0701 317° Northwest  Level Estimated
Sun 04:52:00 AM -21.7810 -48.1533 317° Northwest  Level Estimated
Sun 04:53:00 AM -21.6980 -48.2365 317° Northwest  Level Estimated
Sun 04:54:00 AM -21.6150 -48.3195 317° Northwest  Level Estimated
Sun 04:55:00 AM -21.5319 -48.4025 317° Northwest  Level Estimated
Sun 04:56:00 AM -21.4488 -48.4853 317° Northwest  Level Estimated
Sun 04:57:00 AM -21.3656 -48.5681 317° Northwest  Level Estimated
Sun 04:58:00 AM -21.2824 -48.6508 317° Northwest  Level Estimated
Sun 04:59:00 AM -21.1992 -48.7333 317° Northwest  Level Estimated
Sun 05:00:00 AM -21.1159 -48.8158 317° Northwest  Level Estimated
Sun 05:01:00 AM -21.0325 -48.8982 317° Northwest  Level Estimated
Sun 05:02:00 AM -20.9492 -48.9805 317° Northwest  Level Estimated
Sun 05:03:00 AM -20.8657 -49.0627 317° Northwest  Level Estimated
Sun 05:04:00 AM -20.7823 -49.1449 317° Northwest  Level Estimated
Sun 05:05:00 AM -20.6988 -49.2269 317° Northwest  Level Estimated
Sun 05:06:00 AM -20.6153 -49.3088 317° Northwest  Level Estimated
Sun 05:07:00 AM -20.5317 -49.3907 317° Northwest  Level Estimated
Sun 05:08:00 AM -20.4481 -49.4724 317° Northwest  Level Estimated
Sun 05:09:00 AM -20.3645 -49.5541 318° Northwest  Level Estimated
Sun 05:10:00 AM -20.2808 -49.6357 318° Northwest  Level Estimated
Sun 05:11:00 AM -20.1971 -49.7172 318° Northwest  Level Estimated
Sun 05:12:00 AM -20.1133 -49.7986 318° Northwest  Level Estimated
Sun 05:13:00 AM -20.0296 -49.8799 318° Northwest  Level Estimated
Sun 05:14:00 AM -19.9457 -49.9611 318° Northwest  Level Estimated
Sun 05:15:00 AM -19.8619 -50.0423 318° Northwest  Level Estimated
Sun 05:16:00 AM -19.7780 -50.1233 318° Northwest  Level Estimated
Sun 05:17:00 AM -19.6940 -50.2043 318° Northwest  Level Estimated
Sun 05:18:00 AM -19.6101 -50.2852 318° Northwest  Level Estimated
Sun 05:19:00 AM -19.5260 -50.3660 318° Northwest  Level Estimated
Sun 05:20:00 AM -19.4420 -50.4467 318° Northwest  Level Estimated
Sun 05:21:00 AM -19.3579 -50.5274 318° Northwest  Level Estimated
Sun 05:22:00 AM -19.2738 -50.6079 318° Northwest  Level Estimated
Sun 05:23:00 AM -19.1896 -50.6884 318° Northwest  Level Estimated
Sun 05:24:00 AM -19.1054 -50.7688 318° Northwest  Level Estimated
Sun 05:25:00 AM -19.0212 -50.8491 318° Northwest  Level Estimated
Sun 05:26:00 AM -18.9370 -50.9293 318° Northwest  Level Estimated
Sun 05:27:00 AM -18.8527 -51.0095 318° Northwest  Level Estimated
Sun 05:28:00 AM -18.7684 -51.0895 318° Northwest  Level Estimated
Sun 05:29:00 AM -18.6840 -51.1695 318° Northwest  Level Estimated
Sun 05:30:00 AM -18.5996 -51.2494 318° Northwest  Level Estimated
Sun 05:31:00 AM -18.5152 -51.3293 318° Northwest  Level Estimated
Sun 05:32:00 AM -18.4307 -51.4090 318° Northwest  Level Estimated
Sun 05:33:00 AM -18.3462 -51.4887 318° Northwest  Level Estimated
Sun 05:34:00 AM -18.2617 -51.5683 318° Northwest  Level Estimated
Sun 05:35:00 AM -18.1771 -51.6478 318° Northwest  Level Estimated
Sun 05:36:00 AM -18.0925 -51.7272 318° Northwest  Level Estimated
Sun 05:37:00 AM -18.0079 -51.8066 318° Northwest  Level Estimated
Sun 05:38:00 AM -17.9233 -51.8859 318° Northwest  Level Estimated
Sun 05:39:00 AM -17.8386 -51.9651 318° Northwest  Level Estimated
Sun 05:40:00 AM -17.7539 -52.0442 318° Northwest  Level Estimated
Sun 05:41:00 AM -17.6691 -52.1233 318° Northwest  Level Estimated
Sun 05:42:00 AM -17.5843 -52.2022 318° Northwest  Level Estimated
Sun 05:43:00 AM -17.4995 -52.2812 318° Northwest  Level Estimated
Sun 05:44:00 AM -17.4146 -52.3600 318° Northwest  Level Estimated
Sun 05:45:00 AM -17.3298 -52.4388 318° Northwest  Level Estimated
Sun 05:46:00 AM -17.2449 -52.5174 318° Northwest  Level Estimated
Sun 05:47:00 AM -17.1599 -52.5961 319° Northwest  Level Estimated
Sun 05:48:00 AM -17.0749 -52.6746 319° Northwest  Level Estimated
Sun 05:49:00 AM -16.9900 -52.7531 319° Northwest  Level Estimated
Sun 05:50:00 AM -16.9049 -52.8315 319° Northwest  Level Estimated
Sun 05:51:00 AM -16.8199 -52.9098 319° Northwest  Level Estimated
Sun 05:52:00 AM -16.7348 -52.9881 319° Northwest  Level Estimated
Sun 05:53:00 AM -16.6497 -53.0663 319° Northwest  Level Estimated
Sun 05:54:00 AM -16.5645 -53.1444 319° Northwest  Level Estimated
Sun 05:55:00 AM -16.4793 -53.2224 319° Northwest  Level Estimated
Sun 05:56:00 AM -16.3941 -53.3004 319° Northwest  Level Estimated
Sun 05:57:00 AM -16.3089 -53.3783 319° Northwest  Level Estimated
Sun 05:58:00 AM -16.2236 -53.4562 319° Northwest  Level Estimated
Sun 05:59:00 AM -16.1383 -53.5340 319° Northwest  Level Estimated
Sun 06:00:00 AM -16.0530 -53.6117 319° Northwest  Level Estimated
Sun 06:01:00 AM -15.9677 -53.6893 319° Northwest  Level Estimated
Sun 06:02:00 AM -15.8823 -53.7669 319° Northwest  Level Estimated
Sun 06:03:00 AM -15.7969 -53.8444 319° Northwest  Level Estimated
Sun 06:04:00 AM -15.7114 -53.9219 319° Northwest  Level Estimated
Sun 06:05:00 AM -15.6260 -53.9993 319° Northwest  Level Estimated
Sun 06:06:00 AM -15.5405 -54.0766 319° Northwest  Level Estimated
Sun 06:07:00 AM -15.4550 -54.1538 319° Northwest  Level Estimated
Sun 06:08:00 AM -15.3695 -54.2310 319° Northwest  Level Estimated
Sun 06:09:00 AM -15.2839 -54.3082 319° Northwest  Level Estimated
Sun 06:10:00 AM -15.1983 -54.3852 319° Northwest  Level Estimated
Sun 06:11:00 AM -15.1127 -54.4622 319° Northwest  Level Estimated
Sun 06:12:00 AM -15.0271 -54.5392 319° Northwest  Level Estimated
Sun 06:13:00 AM -14.9414 -54.6161 319° Northwest  Level Estimated
Sun 06:14:00 AM -14.8557 -54.6929 319° Northwest  Level Estimated
Sun 06:15:00 AM -14.7700 -54.7696 319° Northwest  Level Estimated
Sun 06:16:00 AM -14.6842 -54.8463 319° Northwest  Level Estimated
Sun 06:17:00 AM -14.5984 -54.9230 319° Northwest  Level Estimated
Sun 06:18:00 AM -14.5126 -54.9995 319° Northwest  Level Estimated
Sun 06:19:00 AM -14.4268 -55.0761 319° Northwest  Level Estimated
Sun 06:20:00 AM -14.3410 -55.1525 319° Northwest  Level Estimated
Sun 06:21:00 AM -14.2551 -55.2289 319° Northwest  Level Estimated
Sun 06:22:00 AM -14.1692 -55.3053 319° Northwest  Level Estimated
Sun 06:23:00 AM -14.0833 -55.3815 319° Northwest  Level Estimated
Sun 06:24:00 AM -13.9973 -55.4578 319° Northwest  Level Estimated
Sun 06:25:00 AM -13.9114 -55.5340 319° Northwest  Level Estimated
Sun 06:26:00 AM -13.8254 -55.6101 319° Northwest  Level Estimated
Sun 06:27:00 AM -13.7394 -55.6861 319° Northwest  Level Estimated
Sun 06:28:00 AM -13.6533 -55.7621 319° Northwest  Level Estimated
Sun 06:29:00 AM -13.5673 -55.8381 319° Northwest  Level Estimated
Sun 06:30:00 AM -13.4812 -55.9140 319° Northwest  Level Estimated
Sun 06:31:00 AM -13.3951 -55.9898 319° Northwest  Level Estimated
Sun 06:32:00 AM -13.3090 -56.0656 319° Northwest  Level Estimated
Sun 06:33:00 AM -13.2228 -56.1413 319° Northwest  Level Estimated
Sun 06:34:00 AM -13.1366 -56.2170 319° Northwest  Level Estimated
Sun 06:35:00 AM -13.0505 -56.2926 319° Northwest  Level Estimated
Sun 06:36:00 AM -12.9642 -56.3682 319° Northwest  Level Estimated
Sun 06:37:00 AM -12.8780 -56.4437 320° Northwest  Level Estimated
Sun 06:38:00 AM -12.7917 -56.5192 320° Northwest  Level Estimated
Sun 06:39:00 AM -12.7055 -56.5946 320° Northwest  Level Estimated
Sun 06:40:00 AM -12.6192 -56.6699 320° Northwest  Level Estimated
Sun 06:41:00 AM -12.5328 -56.7452 320° Northwest  Level Estimated
Sun 06:42:00 AM -12.4465 -56.8205 320° Northwest  Level Estimated
Sun 06:43:00 AM -12.3601 -56.8957 320° Northwest  Level Estimated
Sun 06:44:00 AM -12.2737 -56.9709 320° Northwest  Level Estimated
Sun 06:45:00 AM -12.1873 -57.0460 320° Northwest  Level Estimated
Sun 06:46:00 AM -12.1009 -57.1210 320° Northwest  Level Estimated
Sun 06:47:00 AM -12.0144 -57.1960 320° Northwest  Level Estimated
Sun 06:48:00 AM -11.9280 -57.2710 320° Northwest  Level Estimated
Sun 06:49:00 AM -11.8415 -57.3459 320° Northwest  Level Estimated
Sun 06:50:00 AM -11.7550 -57.4208 320° Northwest  Level Estimated
Sun 06:51:00 AM -11.6684 -57.4956 320° Northwest  Level Estimated
Sun 06:52:00 AM -11.5819 -57.5704 320° Northwest  Level Estimated
Sun 06:53:00 AM -11.4953 -57.6451 320° Northwest  Level Estimated
Sun 06:54:00 AM -11.4087 -57.7198 320° Northwest  Level Estimated
Sun 06:55:00 AM -11.3222 -57.7945 320° Northwest  Level Estimated
Sun 06:56:00 AM -11.2355 -57.8691 320° Northwest  Level Estimated
Sun 06:57:00 AM -11.1489 -57.9436 320° Northwest  Level Estimated
Sun 06:58:00 AM -11.0622 -58.0181 320° Northwest  Level Estimated
Sun 06:59:00 AM -10.9755 -58.0926 320° Northwest  Level Estimated
Sun 07:00:00 AM -10.8889 -58.1670 320° Northwest  Level Estimated
Sun 07:01:00 AM -10.8021 -58.2414 320° Northwest  Level Estimated
Sun 07:02:00 AM -10.7154 -58.3157 320° Northwest  Level Estimated
Sun 07:03:00 AM -10.6287 -58.3900 320° Northwest  Level Estimated
Sun 07:04:00 AM -10.5419 -58.4642 320° Northwest  Level Estimated
Sun 07:05:00 AM -10.4551 -58.5384 320° Northwest  Level Estimated
Sun 07:06:00 AM -10.3683 -58.6126 320° Northwest  Level Estimated
Sun 07:07:00 AM -10.2815 -58.6867 320° Northwest  Level Estimated
Sun 07:08:00 AM -10.1947 -58.7608 320° Northwest  Level Estimated
Sun 07:09:00 AM -10.1078 -58.8348 320° Northwest  Level Estimated
Sun 07:10:00 AM -10.0210 -58.9088 320° Northwest  Level Estimated
Sun 07:11:00 AM -9.9341 -58.9828 320° Northwest  Level Estimated
Sun 07:12:00 AM -9.8472 -59.0567 320° Northwest  Level Estimated
Sun 07:13:00 AM -9.7603 -59.1306 320° Northwest  Level Estimated
Sun 07:14:00 AM -9.6733 -59.2044 320° Northwest  Level Estimated
Sun 07:15:00 AM -9.5864 -59.2783 320° Northwest  Level Estimated
Sun 07:16:00 AM -9.4994 -59.3520 320° Northwest  Level Estimated
Sun 07:17:00 AM -9.4124 -59.4258 320° Northwest  Level Estimated
Sun 07:18:00 AM -9.3254 -59.4994 320° Northwest  Level Estimated
Sun 07:19:00 AM -9.2384 -59.5731 320° Northwest  Level Estimated
Sun 07:20:00 AM -9.1514 -59.6467 320° Northwest  Level Estimated
Sun 07:21:00 AM -9.0644 -59.7203 320° Northwest  Level Estimated
Sun 07:22:00 AM -8.9773 -59.7938 320° Northwest  Level Estimated
Sun 07:23:00 AM -8.8903 -59.8674 320° Northwest  Level Estimated
Sun 07:24:00 AM -8.8032 -59.9408 320° Northwest  Level Estimated
Sun 07:25:00 AM -8.7161 -60.0143 320° Northwest  Level Estimated
Sun 07:26:00 AM -8.6290 -60.0877 320° Northwest  Level Estimated
Sun 07:27:00 AM -8.5418 -60.1611 320° Northwest  Level Estimated
Sun 07:28:00 AM -8.4547 -60.2344 320° Northwest  Level Estimated
Sun 07:29:00 AM -8.3675 -60.3077 320° Northwest  Level Estimated
Sun 07:30:00 AM -8.2804 -60.3810 320° Northwest  Level Estimated
Sun 07:31:00 AM -8.1932 -60.4542 320° Northwest  Level Estimated
Sun 07:32:00 AM -8.1060 -60.5275 320° Northwest  Level Estimated
Sun 07:33:00 AM -8.0188 -60.6006 320° Northwest  Level Estimated
Sun 07:34:00 AM -7.9316 -60.6738 320° Northwest  Level Estimated
Sun 07:35:00 AM -7.8444 -60.7469 320° Northwest  Level Estimated
Sun 07:36:00 AM -7.7571 -60.8200 320° Northwest  Level Estimated
Sun 07:37:00 AM -7.6699 -60.8931 320° Northwest  Level Estimated
Sun 07:38:00 AM -7.5826 -60.9661 320° Northwest  Level Estimated
Sun 07:39:00 AM -7.4953 -61.0391 320° Northwest  Level Estimated
Sun 07:40:00 AM -7.4080 -61.1120 320° Northwest  Level Estimated
Sun 07:41:00 AM -7.3207 -61.1850 320° Northwest  Level Estimated
Sun 07:42:00 AM -7.2334 -61.2579 320° Northwest  Level Estimated
Sun 07:43:00 AM -7.1461 -61.3308 320° Northwest  Level Estimated
Sun 07:44:00 AM -7.0587 -61.4036 320° Northwest  Level Estimated
Sun 07:45:00 AM -6.9714 -61.4765 320° Northwest  Level Estimated
Sun 07:46:00 AM -6.8840 -61.5493 320° Northwest  Level Estimated
Sun 07:47:00 AM -6.7966 -61.6220 320° Northwest  Level Estimated
Sun 07:48:00 AM -6.7093 -61.6948 320° Northwest  Level Estimated
Sun 07:49:00 AM -6.6219 -61.7675 320° Northwest  Level Estimated
Sun 07:50:00 AM -6.5345 -61.8402 320° Northwest  Level Estimated
Sun 07:51:00 AM -6.4471 -61.9129 320° Northwest  Level Estimated
Sun 07:52:00 AM -6.3597 -61.9855 320° Northwest  Level Estimated
Sun 07:53:00 AM -6.2722 -62.0581 320° Northwest  Level Estimated
Sun 07:54:00 AM -6.1848 -62.1307 320° Northwest  Level Estimated
Sun 07:55:00 AM -6.0973 -62.2033 320° Northwest  Level Estimated
Sun 07:56:00 AM -6.0099 -62.2758 320° Northwest  Level Estimated
Sun 07:57:00 AM -5.9224 -62.3484 320° Northwest  Level Estimated
Sun 07:58:00 AM -5.8349 -62.4209 320° Northwest  Level Estimated
Sun 07:59:00 AM -5.7474 -62.4934 321° Northwest  Level Estimated
Sun 08:00:00 AM -5.6599 -62.5658 321° Northwest  Level Estimated
Sun 08:01:00 AM -5.5724 -62.6382 321° Northwest  Level Estimated
Sun 08:02:00 AM -5.4849 -62.7107 321° Northwest  Level Estimated
Sun 08:03:00 AM -5.3973 -62.7830 321° Northwest  Level Estimated
Sun 08:04:00 AM -5.3098 -62.8554 321° Northwest  Level Estimated
Sun 08:05:00 AM -5.2223 -62.9278 321° Northwest  Level Estimated
Sun 08:06:00 AM -5.1347 -63.0001 321° Northwest  Level Estimated
Sun 08:07:00 AM -5.0472 -63.0724 321° Northwest  Level Estimated
Sun 08:08:00 AM -4.9596 -63.1447 321° Northwest  Level Estimated
Sun 08:09:00 AM -4.8720 -63.2170 321° Northwest  Level Estimated
Sun 08:10:00 AM -4.7844 -63.2892 321° Northwest  Level Estimated
Sun 08:11:00 AM -4.6968 -63.3614 321° Northwest  Level Estimated
Sun 08:12:00 AM -4.6092 -63.4337 321° Northwest  Level Estimated
Sun 08:13:00 AM -4.5216 -63.5059 321° Northwest  Level Estimated
Sun 08:14:00 AM -4.4340 -63.5780 321° Northwest  Level Estimated
Sun 08:15:00 AM -4.3464 -63.6502 321° Northwest  Level Estimated
Sun 08:16:00 AM -4.2587 -63.7224 321° Northwest  Level Estimated
Sun 08:17:00 AM -4.1711 -63.7945 321° Northwest  Level Estimated
Sun 08:18:00 AM -4.0835 -63.8666 321° Northwest  Level Estimated
Sun 08:19:00 AM -3.9958 -63.9387 321° Northwest  Level Estimated
Sun 08:20:00 AM -3.9082 -64.0108 321° Northwest  Level Estimated
Sun 08:21:00 AM -3.8205 -64.0828 321° Northwest  Level Estimated
Sun 08:22:00 AM -3.7328 -64.1549 321° Northwest  Level Estimated
Sun 08:23:00 AM -3.6452 -64.2269 321° Northwest  Level Estimated
Sun 08:24:00 AM -3.5575 -64.2990 321° Northwest  Level Estimated
Sun 08:25:00 AM -3.4698 -64.3710 321° Northwest  Level Estimated
Sun 08:26:00 AM -3.3821 -64.4430 321° Northwest  Level Estimated
Sun 08:27:00 AM -3.2944 -64.5150 321° Northwest  Level Estimated
Sun 08:28:00 AM -3.2067 -64.5869 321° Northwest  Level Estimated
Sun 08:29:00 AM -3.1190 -64.6589 321° Northwest  Level Estimated
Sun 08:30:00 AM -3.0313 -64.7308 321° Northwest  Level Estimated
Sun 08:31:00 AM -2.9436 -64.8028 321° Northwest  Level Estimated
Sun 08:32:00 AM -2.8559 -64.8747 321° Northwest  Level Estimated
Sun 08:33:00 AM -2.7681 -64.9466 321° Northwest  Level Estimated
Sun 08:34:00 AM -2.6804 -65.0185 321° Northwest  Level Estimated
Sun 08:35:00 AM -2.5927 -65.0904 321° Northwest  Level Estimated
Sun 08:36:00 AM -2.5049 -65.1623 321° Northwest  Level Estimated
Sun 08:37:00 AM -2.4172 -65.2342 321° Northwest  Level Estimated
Sun 08:38:00 AM -2.3295 -65.3060 321° Northwest  Level Estimated
Sun 08:39:00 AM -2.2417 -65.3779 321° Northwest  Level Estimated
Sun 08:40:00 AM -2.1540 -65.4497 321° Northwest  Level Estimated
Sun 08:41:00 AM -2.0662 -65.5216 321° Northwest  Level Estimated
Sun 08:42:00 AM -1.9784 -65.5934 321° Northwest  Level Estimated
Sun 08:43:00 AM -1.8907 -65.6652 321° Northwest  Level Estimated
Sun 08:44:00 AM -1.8029 -65.7370 321° Northwest  Level Estimated
Sun 08:45:00 AM -1.7151 -65.8089 321° Northwest  Level Estimated
Sun 08:46:00 AM -1.6274 -65.8807 321° Northwest  Level Estimated
Sun 08:47:00 AM -1.5396 -65.9525 321° Northwest  Level Estimated
Sun 08:48:00 AM -1.4518 -66.0242 321° Northwest  Level Estimated
Sun 08:49:00 AM -1.3641 -66.0960 321° Northwest  Level Estimated
Sun 08:50:00 AM -1.2763 -66.1678 321° Northwest  Level Estimated
Sun 08:51:00 AM -1.1885 -66.2396 321° Northwest  Level Estimated
Sun 08:52:00 AM -1.1007 -66.3113 321° Northwest  Level Estimated
Sun 08:53:00 AM -1.0129 -66.3831 321° Northwest  Level Estimated
Sun 08:54:00 AM -0.9251 -66.4549 321° Northwest  Level Estimated
Sun 08:55:00 AM -0.8374 -66.5266 321° Northwest  Level Estimated
Sun 08:56:00 AM -0.7496 -66.5984 321° Northwest  Level Estimated
Sun 08:57:00 AM -0.6618 -66.6701 321° Northwest  Level Estimated
Sun 08:58:00 AM -0.5740 -66.7419 321° Northwest  Level Estimated
Sun 08:59:00 AM -0.4862 -66.8136 321° Northwest  Level Estimated
Sun 09:00:00 AM -0.3984 -66.8854 321° Northwest  Level Estimated
Sun 09:01:00 AM -0.3106 -66.9571 321° Northwest  Level Estimated
Sun 09:02:00 AM -0.2228 -67.0289 321° Northwest  Level Estimated
Sun 09:03:00 AM -0.1350 -67.1006 321° Northwest  Level Estimated
Sun 09:04:00 AM -0.0472 -67.1723 321° Northwest  Level Estimated
Sun 09:05:00 AM 0.0405 -67.2441 321° Northwest  Level Estimated
Sun 09:06:00 AM 0.1283 -67.3158 321° Northwest  Level Estimated
Sun 09:07:00 AM 0.2161 -67.3876 321° Northwest  Level Estimated
Sun 09:08:00 AM 0.3039 -67.4593 321° Northwest  Level Estimated
Sun 09:09:00 AM 0.3917 -67.5310 321° Northwest  Level Estimated
Sun 09:10:00 AM 0.4795 -67.6028 321° Northwest  Level Estimated
Sun 09:11:00 AM 0.5673 -67.6745 321° Northwest  Level Estimated
Sun 09:12:00 AM 0.6551 -67.7463 321° Northwest  Level Estimated
Sun 09:13:00 AM 0.7429 -67.8180 321° Northwest  Level Estimated
Sun 09:14:00 AM 0.8306 -67.8898 321° Northwest  Level Estimated
Sun 09:15:00 AM 0.9184 -67.9615 321° Northwest  Level Estimated
Sun 09:16:00 AM 1.0062 -68.0333 321° Northwest  Level Estimated
Sun 09:17:00 AM 1.0940 -68.1051 321° Northwest  Level Estimated
Sun 09:18:00 AM 1.1818 -68.1768 321° Northwest  Level Estimated
Sun 09:19:00 AM 1.2696 -68.2486 321° Northwest  Level Estimated
Sun 09:20:00 AM 1.3574 -68.3204 321° Northwest  Level Estimated
Sun 09:21:00 AM 1.4451 -68.3922 321° Northwest  Level Estimated
Sun 09:22:00 AM 1.5329 -68.4640 321° Northwest  Level Estimated
Sun 09:23:00 AM 1.6207 -68.5358 321° Northwest  Level Estimated
Sun 09:24:00 AM 1.7085 -68.6076 321° Northwest  Level Estimated
Sun 09:25:00 AM 1.7962 -68.6794 321° Northwest  Level Estimated
Sun 09:26:00 AM 1.8840 -68.7512 321° Northwest  Level Estimated
Sun 09:27:00 AM 1.9718 -68.8230 321° Northwest  Level Estimated
Sun 09:28:00 AM 2.0595 -68.8948 321° Northwest  Level Estimated
Sun 09:29:00 AM 2.1473 -68.9667 321° Northwest  Level Estimated
Sun 09:30:00 AM 2.2350 -69.0385 321° Northwest  Level Estimated
Sun 09:31:00 AM 2.3228 -69.1104 321° Northwest  Level Estimated
Sun 09:32:00 AM 2.4105 -69.1822 321° Northwest  Level Estimated
Sun 09:33:00 AM 2.4983 -69.2541 321° Northwest  Level Estimated
Sun 09:34:00 AM 2.5860 -69.3260 321° Northwest  Level Estimated
Sun 09:35:00 AM 2.6737 -69.3979 321° Northwest  Level Estimated
Sun 09:36:00 AM 2.7615 -69.4698 321° Northwest  Level Estimated
Sun 09:37:00 AM 2.8492 -69.5417 321° Northwest  Level Estimated
Sun 09:38:00 AM 2.9369 -69.6136 321° Northwest  Level Estimated
Sun 09:39:00 AM 3.0246 -69.6855 321° Northwest  Level Estimated
Sun 09:40:00 AM 3.1123 -69.7575 321° Northwest  Level Estimated
Sun 09:41:00 AM 3.2000 -69.8295 321° Northwest  Level Estimated
Sun 09:42:00 AM 3.2877 -69.9014 321° Northwest  Level Estimated
Sun 09:43:00 AM 3.3754 -69.9734 321° Northwest  Level Estimated
Sun 09:44:00 AM 3.4631 -70.0454 321° Northwest  Level Estimated
Sun 09:45:00 AM 3.5508 -70.1174 321° Northwest  Level Estimated
Sun 09:46:00 AM 3.6385 -70.1894 321° Northwest  Level Estimated
Sun 09:47:00 AM 3.7262 -70.2615 321° Northwest  Level Estimated
Sun 09:48:00 AM 3.8138 -70.3335 321° Northwest  Level Estimated
Sun 09:49:00 AM 3.9015 -70.4056 321° Northwest  Level Estimated
Sun 09:50:00 AM 3.9891 -70.4777 321° Northwest  Level Estimated
Sun 09:51:00 AM 4.0768 -70.5498 321° Northwest  Level Estimated
Sun 09:52:00 AM 4.1644 -70.6219 321° Northwest  Level Estimated
Sun 09:53:00 AM 4.2521 -70.6940 321° Northwest  Level Estimated
Sun 09:54:00 AM 4.3397 -70.7662 321° Northwest  Level Estimated
Sun 09:55:00 AM 4.4273 -70.8383 321° Northwest  Level Estimated
Sun 09:56:00 AM 4.5149 -70.9105 321° Northwest  Level Estimated
Sun 09:57:00 AM 4.6026 -70.9827 321° Northwest  Level Estimated
Sun 09:58:00 AM 4.6901 -71.0549 321° Northwest  Level Estimated
Sun 09:59:00 AM 4.7777 -71.1272 321° Northwest  Level Estimated
Sun 10:00:00 AM 4.8653 -71.1994 321° Northwest  Level Estimated
Sun 10:01:00 AM 4.9529 -71.2717 321° Northwest  Level Estimated
Sun 10:02:00 AM 5.0405 -71.3440 321° Northwest  Level Estimated
Sun 10:03:00 AM 5.1280 -71.4163 321° Northwest  Level Estimated
Sun 10:04:00 AM 5.2156 -71.4886 321° Northwest  Level Estimated
Sun 10:05:00 AM 5.3031 -71.5610 321° Northwest  Level Estimated
Sun 10:06:00 AM 5.3907 -71.6333 321° Northwest  Level Estimated
Sun 10:07:00 AM 5.4782 -71.7057 321° Northwest  Level Estimated
Sun 10:08:00 AM 5.5657 -71.7781 321° Northwest  Level Estimated
Sun 10:09:00 AM 5.6532 -71.8505 321° Northwest  Level Estimated
Sun 10:10:00 AM 5.7407 -71.9230 321° Northwest  Level Estimated
Sun 10:11:00 AM 5.8282 -71.9955 321° Northwest  Level Estimated
Sun 10:12:00 AM 5.9157 -72.0680 321° Northwest  Level Estimated
Sun 10:13:00 AM 6.0032 -72.1405 320° Northwest  Level Estimated
Sun 10:14:00 AM 6.0907 -72.2131 320° Northwest  Level Estimated
Sun 10:15:00 AM 6.1781 -72.2856 320° Northwest  Level Estimated
Sun 10:16:00 AM 6.2656 -72.3582 320° Northwest  Level Estimated
Sun 10:17:00 AM 6.3530 -72.4308 320° Northwest  Level Estimated
Sun 10:18:00 AM 6.4404 -72.5035 320° Northwest  Level Estimated
Sun 10:19:00 AM 6.5279 -72.5761 320° Northwest  Level Estimated
Sun 10:20:00 AM 6.6153 -72.6488 320° Northwest  Level Estimated
Sun 10:21:00 AM 6.7027 -72.7215 320° Northwest  Level Estimated
Sun 10:22:00 AM 6.7900 -72.7943 320° Northwest  Level Estimated
Sun 10:23:00 AM 6.8774 -72.8671 320° Northwest  Level Estimated
Sun 10:24:00 AM 6.9648 -72.9399 320° Northwest  Level Estimated
Sun 10:25:00 AM 7.0521 -73.0127 320° Northwest  Level Estimated
Sun 10:26:00 AM 7.1395 -73.0855 320° Northwest  Level Estimated
Sun 10:27:00 AM 7.2268 -73.1584 320° Northwest  Level Estimated
Sun 10:28:00 AM 7.3141 -73.2313 320° Northwest  Level Estimated
Sun 10:29:00 AM 7.4014 -73.3043 320° Northwest  Level Estimated
Sun 10:30:00 AM 7.4887 -73.3772 320° Northwest  Level Estimated
Sun 10:31:00 AM 7.5760 -73.4502 320° Northwest  Level Estimated
Sun 10:32:00 AM 7.6632 -73.5233 320° Northwest  Level Estimated
Sun 10:33:00 AM 7.7505 -73.5963 320° Northwest  Level Estimated
Sun 10:34:00 AM 7.8377 -73.6694 320° Northwest  Level Estimated
Sun 10:35:00 AM 7.9250 -73.7425 320° Northwest  Level Estimated
Sun 10:36:00 AM 8.0122 -73.8157 320° Northwest  Level Estimated
Sun 10:37:00 AM 8.0994 -73.8888 320° Northwest  Level Estimated
Sun 10:38:00 AM 8.1866 -73.9621 320° Northwest  Level Estimated
Sun 10:39:00 AM 8.2738 -74.0353 320° Northwest  Level Estimated
Sun 10:40:00 AM 8.3609 -74.1086 320° Northwest  Level Estimated
Sun 10:41:00 AM 8.4481 -74.1819 320° Northwest  Level Estimated
Sun 10:42:00 AM 8.5352 -74.2552 320° Northwest  Level Estimated
Sun 10:43:00 AM 8.6224 -74.3286 320° Northwest  Level Estimated
Sun 10:44:00 AM 8.7095 -74.4020 320° Northwest  Level Estimated
Sun 10:45:00 AM 8.7966 -74.4754 320° Northwest  Level Estimated
Sun 10:46:00 AM 8.8836 -74.5489 320° Northwest  Level Estimated
Sun 10:47:00 AM 8.9707 -74.6224 320° Northwest  Level Estimated
Sun 10:48:00 AM 9.0578 -74.6960 320° Northwest  Level Estimated
Sun 10:49:00 AM 9.1448 -74.7696 320° Northwest  Level Estimated
Sun 10:50:00 AM 9.2318 -74.8432 320° Northwest  Level Estimated
Sun 10:51:00 AM 9.3188 -74.9168 320° Northwest  Level Estimated
Sun 10:52:00 AM 9.4058 -74.9905 320° Northwest  Level Estimated
Sun 10:53:00 AM 9.4928 -75.0642 320° Northwest  Level Estimated
Sun 10:54:00 AM 9.5798 -75.1380 320° Northwest  Level Estimated
Sun 10:55:00 AM 9.6667 -75.2118 320° Northwest  Level Estimated
Sun 10:56:00 AM 9.7536 -75.2857 320° Northwest  Level Estimated
Sun 10:57:00 AM 9.8406 -75.3595 320° Northwest  Level Estimated
Sun 10:58:00 AM 9.9275 -75.4335 320° Northwest  Level Estimated
Sun 10:59:00 AM 10.0143 -75.5074 320° Northwest  Level Estimated
Sun 11:00:00 AM 10.1012 -75.5814 320° Northwest  Level Estimated
Sun 11:01:00 AM 10.1881 -75.6555 320° Northwest  Level Estimated
Sun 11:02:00 AM 10.2749 -75.7295 320° Northwest  Level Estimated
Sun 11:03:00 AM 10.3617 -75.8037 320° Northwest  Level Estimated
Sun 11:04:00 AM 10.4485 -75.8778 320° Northwest  Level Estimated
Sun 11:05:00 AM 10.5353 -75.9520 320° Northwest  Level Estimated
Sun 11:06:00 AM 10.6221 -76.0263 320° Northwest  Level Estimated
Sun 11:07:00 AM 10.7088 -76.1005 320° Northwest  Level Estimated
Sun 11:08:00 AM 10.7956 -76.1749 320° Northwest  Level Estimated
Sun 11:09:00 AM 10.8823 -76.2493 320° Northwest  Level Estimated
Sun 11:10:00 AM 10.9690 -76.3237 320° Northwest  Level Estimated
Sun 11:11:00 AM 11.0556 -76.3981 320° Northwest  Level Estimated
Sun 11:12:00 AM 11.1423 -76.4726 320° Northwest  Level Estimated
Sun 11:13:00 AM 11.2289 -76.5472 320° Northwest  Level Estimated
Sun 11:14:00 AM 11.3156 -76.6218 320° Northwest  Level Estimated
Sun 11:15:00 AM 11.4022 -76.6964 320° Northwest  Level Estimated
Sun 11:16:00 AM 11.4888 -76.7711 320° Northwest  Level Estimated
Sun 11:17:00 AM 11.5753 -76.8458 320° Northwest  Level Estimated
Sun 11:18:00 AM 11.6619 -76.9206 320° Northwest  Level Estimated
Sun 11:19:00 AM 11.7484 -76.9954 320° Northwest  Level Estimated
Sun 11:20:00 AM 11.8349 -77.0703 320° Northwest  Level Estimated
Sun 11:21:00 AM 11.9214 -77.1452 320° Northwest  Level Estimated
Sun 11:22:00 AM 12.0079 -77.2201 320° Northwest  Level Estimated
Sun 11:23:00 AM 12.0943 -77.2952 320° Northwest  Level Estimated
Sun 11:24:00 AM 12.1807 -77.3702 320° Northwest  Level Estimated
Sun 11:25:00 AM 12.2672 -77.4453 320° Northwest  Level Estimated
Sun 11:26:00 AM 12.3535 -77.5205 320° Northwest  Level Estimated
Sun 11:27:00 AM 12.4399 -77.5957 320° Northwest  Level Estimated
Sun 11:28:00 AM 12.5263 -77.6710 320° Northwest  Level Estimated
Sun 11:29:00 AM 12.6126 -77.7463 320° Northwest  Level Estimated
Sun 11:30:00 AM 12.6989 -77.8216 320° Northwest  Level Estimated
Sun 11:31:00 AM 12.7852 -77.8970 320° Northwest  Level Estimated
Sun 11:32:00 AM 12.8714 -77.9725 320° Northwest  Level Estimated
Sun 11:33:00 AM 12.9577 -78.0480 320° Northwest  Level Estimated
Sun 11:34:00 AM 13.0439 -78.1236 320° Northwest  Level Estimated
Sun 11:35:00 AM 13.1301 -78.1992 319° Northwest  Level Estimated
Sun 11:36:00 AM 13.2163 -78.2749 319° Northwest  Level Estimated
Sun 11:37:00 AM 13.3024 -78.3506 319° Northwest  Level Estimated
Sun 11:38:00 AM 13.3885 -78.4264 319° Northwest  Level Estimated
Sun 11:39:00 AM 13.4747 -78.5022 319° Northwest  Level Estimated
Sun 11:40:00 AM 13.5607 -78.5781 319° Northwest  Level Estimated
Sun 11:41:00 AM 13.6468 -78.6540 319° Northwest  Level Estimated
Sun 11:42:00 AM 13.7328 -78.7300 319° Northwest  Level Estimated
Sun 11:43:00 AM 13.8188 -78.8061 319° Northwest  Level Estimated
Sun 11:44:00 AM 13.9048 -78.8822 319° Northwest  Level Estimated
Sun 11:45:00 AM 13.9908 -78.9584 319° Northwest  Level Estimated
Sun 11:46:00 AM 14.0767 -79.0346 319° Northwest  Level Estimated
Sun 11:47:00 AM 14.1627 -79.1108 319° Northwest  Level Estimated
Sun 11:48:00 AM 14.2486 -79.1872 319° Northwest  Level Estimated
Sun 11:49:00 AM 14.3344 -79.2636 319° Northwest  Level Estimated
Sun 11:50:00 AM 14.4203 -79.3400 319° Northwest  Level Estimated
Sun 11:51:00 AM 14.5061 -79.4165 319° Northwest  Level Estimated
Sun 11:52:00 AM 14.5919 -79.4931 319° Northwest  Level Estimated
Sun 11:53:00 AM 14.6777 -79.5697 319° Northwest  Level Estimated
Sun 11:54:00 AM 14.7634 -79.6464 319° Northwest  Level Estimated
Sun 11:55:00 AM 14.8491 -79.7232 319° Northwest  Level Estimated
Sun 11:56:00 AM 14.9348 -79.8000 319° Northwest  Level Estimated
Sun 11:57:00 AM 15.0205 -79.8769 319° Northwest  Level Estimated
Sun 11:58:00 AM 15.1062 -79.9538 319° Northwest  Level Estimated
Sun 11:59:00 AM 15.1918 -80.0308 319° Northwest  Level Estimated
Sun 12:00:00 PM 15.2774 -80.1079 319° Northwest  Level Estimated
Sun 12:01:00 PM 15.3630 -80.1850 319° Northwest  Level Estimated
Sun 12:02:00 PM 15.4485 -80.2622 319° Northwest  Level Estimated
Sun 12:03:00 PM 15.5340 -80.3394 319° Northwest  Level Estimated
Sun 12:04:00 PM 15.6195 -80.4168 319° Northwest  Level Estimated
Sun 12:05:00 PM 15.7050 -80.4941 319° Northwest  Level Estimated
Sun 12:06:00 PM 15.7904 -80.5716 319° Northwest  Level Estimated
Sun 12:07:00 PM 15.8758 -80.6491 319° Northwest  Level Estimated
Sun 12:08:00 PM 15.9612 -80.7267 319° Northwest  Level Estimated
Sun 12:09:00 PM 16.0465 -80.8043 319° Northwest  Level Estimated
Sun 12:10:00 PM 16.1318 -80.8820 319° Northwest  Level Estimated
Sun 12:11:00 PM 16.2171 -80.9598 319° Northwest  Level Estimated
Sun 12:12:00 PM 16.3024 -81.0377 319° Northwest  Level Estimated
Sun 12:13:00 PM 16.3876 -81.1156 319° Northwest  Level Estimated
Sun 12:14:00 PM 16.4729 -81.1935 319° Northwest  Level Estimated
Sun 12:15:00 PM 16.5580 -81.2716 319° Northwest  Level Estimated
Sun 12:16:00 PM 16.6432 -81.3497 319° Northwest  Level Estimated
Sun 12:17:00 PM 16.7283 -81.4279 319° Northwest  Level Estimated
Sun 12:18:00 PM 16.8134 -81.5062 319° Northwest  Level Estimated
Sun 12:19:00 PM 16.8985 -81.5845 319° Northwest  Level Estimated
Sun 12:20:00 PM 16.9835 -81.6629 319° Northwest  Level Estimated
Sun 12:21:00 PM 17.0685 -81.7414 319° Northwest  Level Estimated
Sun 12:22:00 PM 17.1535 -81.8199 319° Northwest  Level Estimated
Sun 12:23:00 PM 17.2384 -81.8985 319° Northwest  Level Estimated
Sun 12:24:00 PM 17.3233 -81.9772 319° Northwest  Level Estimated
Sun 12:25:00 PM 17.4082 -82.0559 318° Northwest  Level Estimated
Sun 12:26:00 PM 17.4930 -82.1348 318° Northwest  Level Estimated
Sun 12:27:00 PM 17.5779 -82.2137 318° Northwest  Level Estimated
Sun 12:28:00 PM 17.6626 -82.2927 318° Northwest  Level Estimated
Sun 12:29:00 PM 17.7474 -82.3717 318° Northwest  Level Estimated
Sun 12:30:00 PM 17.8321 -82.4508 318° Northwest  Level Estimated
Sun 12:31:00 PM 17.9168 -82.5300 318° Northwest  Level Estimated
Sun 12:32:00 PM 18.0015 -82.6093 318° Northwest  Level Estimated
Sun 12:33:00 PM 18.0861 -82.6887 318° Northwest  Level Estimated
Sun 12:34:00 PM 18.1707 -82.7681 318° Northwest  Level Estimated
Sun 12:35:00 PM 18.2553 -82.8476 318° Northwest  Level Estimated
Sun 12:36:00 PM 18.3398 -82.9272 318° Northwest  Level Estimated
Sun 12:37:00 PM 18.4243 -83.0069 318° Northwest  Level Estimated
Sun 12:38:00 PM 18.5087 -83.0866 318° Northwest  Level Estimated
Sun 12:39:00 PM 18.5932 -83.1664 318° Northwest  Level Estimated
Sun 12:40:00 PM 18.6776 -83.2463 318° Northwest  Level Estimated
Sun 12:41:00 PM 18.7619 -83.3263 318° Northwest  Level Estimated
Sun 12:42:00 PM 18.8463 -83.4064 318° Northwest  Level Estimated
Sun 12:43:00 PM 18.9305 -83.4865 318° Northwest  Level Estimated
Sun 12:44:00 PM 19.0148 -83.5667 318° Northwest  Level Estimated
Sun 12:45:00 PM 19.0990 -83.6470 318° Northwest  Level Estimated
Sun 12:46:00 PM 19.1832 -83.7274 318° Northwest  Level Estimated
Sun 12:47:00 PM 19.2674 -83.8079 318° Northwest  Level Estimated
Sun 12:48:00 PM 19.3515 -83.8884 318° Northwest  Level Estimated
Sun 12:49:00 PM 19.4356 -83.9690 318° Northwest  Level Estimated
Sun 12:50:00 PM 19.5196 -84.0498 318° Northwest  Level Estimated
Sun 12:51:00 PM 19.6036 -84.1306 318° Northwest  Level Estimated
Sun 12:52:00 PM 19.6876 -84.2114 318° Northwest  Level Estimated
Sun 12:53:00 PM 19.7715 -84.2924 318° Northwest  Level Estimated
Sun 12:54:00 PM 19.8554 -84.3735 318° Northwest  Level Estimated
Sun 12:55:00 PM 19.9393 -84.4546 318° Northwest  Level Estimated
Sun 12:56:00 PM 20.0231 -84.5358 318° Northwest  Level Estimated
Sun 12:57:00 PM 20.1069 -84.6171 318° Northwest  Level Estimated
Sun 12:58:00 PM 20.1907 -84.6985 318° Northwest  Level Estimated
Sun 12:59:00 PM 20.2744 -84.7800 318° Northwest  Level Estimated
Sun 01:00:00 PM 20.3581 -84.8616 318° Northwest  Level Estimated
Sun 01:01:00 PM 20.4417 -84.9433 318° Northwest  Level Estimated
Sun 01:02:00 PM 20.5253 -85.0250 318° Northwest  Level Estimated
Sun 01:03:00 PM 20.6089 -85.1068 317° Northwest  Level Estimated
Sun 01:04:00 PM 20.6924 -85.1888 317° Northwest  Level Estimated
Sun 01:05:00 PM 20.7759 -85.2708 317° Northwest  Level Estimated
Sun 01:06:00 PM 20.8594 -85.3529 317° Northwest  Level Estimated
Sun 01:07:00 PM 20.9428 -85.4351 317° Northwest  Level Estimated
Sun 01:08:00 PM 21.0262 -85.5174 317° Northwest  Level Estimated
Sun 01:09:00 PM 21.1095 -85.5998 317° Northwest  Level Estimated
Sun 01:10:00 PM 21.1928 -85.6823 317° Northwest  Level Estimated
Sun 01:11:00 PM 21.2760 -85.7648 317° Northwest  Level Estimated
Sun 01:12:00 PM 21.3592 -85.8475 317° Northwest  Level Estimated
Sun 01:13:00 PM 21.4424 -85.9303 317° Northwest  Level Estimated
Sun 01:14:00 PM 21.5255 -86.0131 317° Northwest  Level Estimated
Sun 01:15:00 PM 21.6086 -86.0961 317° Northwest  Level Estimated
Sun 01:16:00 PM 21.6917 -86.1791 317° Northwest  Level Estimated
Sun 01:17:00 PM 21.7747 -86.2623 317° Northwest  Level Estimated
Sun 01:18:00 PM 21.8577 -86.3455 317° Northwest  Level Estimated
Sun 01:19:00 PM 21.9406 -86.4288 317° Northwest  Level Estimated
Sun 01:20:00 PM 22.0235 -86.5123 317° Northwest  Level Estimated
Sun 01:21:00 PM 22.1063 -86.5958 317° Northwest  Level Estimated
Sun 01:22:00 PM 22.1891 -86.6794 317° Northwest  Level Estimated
Sun 01:23:00 PM 22.2719 -86.7632 317° Northwest  Level Estimated
Sun 01:24:00 PM 22.3546 -86.8470 317° Northwest  Level Estimated
Sun 01:25:00 PM 22.4372 -86.9309 317° Northwest  Level Estimated
Sun 01:26:00 PM 22.5198 -87.0149 317° Northwest  Level Estimated
Sun 01:27:00 PM 22.6024 -87.0990 317° Northwest  Level Estimated
Sun 01:28:00 PM 22.6850 -87.1833 317° Northwest  Level Estimated
Sun 01:29:00 PM 22.7675 -87.2676 317° Northwest  Level Estimated
Sun 01:30:00 PM 22.8499 -87.3520 317° Northwest  Level Estimated
Sun 01:31:00 PM 22.9323 -87.4365 317° Northwest  Level Estimated
Sun 01:32:00 PM 23.0147 -87.5212 317° Northwest  Level Estimated
Sun 01:33:00 PM 23.0970 -87.6059 317° Northwest  Level Estimated
Sun 01:34:00 PM 23.1793 -87.6908 317° Northwest  Level Estimated
Sun 01:35:00 PM 23.2615 -87.7757 317° Northwest  Level Estimated
Sun 01:36:00 PM 23.3437 -87.8608 316° Northwest  Level Estimated
Sun 01:37:00 PM 23.4258 -87.9459 316° Northwest  Level Estimated
Sun 01:38:00 PM 23.5079 -88.0312 316° Northwest  Level Estimated
Sun 01:39:00 PM 23.5899 -88.1165 316° Northwest  Level Estimated
Sun 01:40:00 PM 23.6719 -88.2020 316° Northwest  Level Estimated
Sun 01:41:00 PM 23.7539 -88.2876 316° Northwest  Level Estimated
Sun 01:42:00 PM 23.8358 -88.3733 316° Northwest  Level Estimated
Sun 01:43:00 PM 23.9176 -88.4591 316° Northwest  Level Estimated
Sun 01:44:00 PM 23.9994 -88.5450 316° Northwest  Level Estimated
Sun 01:45:00 PM 24.0812 -88.6310 316° Northwest  Level Estimated
Sun 01:46:00 PM 24.1629 -88.7171 316° Northwest  Level Estimated
Sun 01:47:00 PM 24.2445 -88.8034 316° Northwest  Level Estimated
Sun 01:48:00 PM 24.3261 -88.8897 316° Northwest  Level Estimated
Sun 01:49:00 PM 24.4077 -88.9762 316° Northwest  Level Estimated
Sun 01:50:00 PM 24.4892 -89.0628 316° Northwest  Level Estimated
Sun 01:51:00 PM 24.5707 -89.1495 316° Northwest  Level Estimated
Sun 01:52:00 PM 24.6521 -89.2362 316° Northwest  Level Estimated
Sun 01:53:00 PM 24.7334 -89.3232 316° Northwest  Level Estimated
Sun 01:54:00 PM 24.8147 -89.4102 316° Northwest  Level Estimated
Sun 01:55:00 PM 24.8960 -89.4973 316° Northwest  Level Estimated
Sun 01:56:00 PM 24.9772 -89.5846 316° Northwest  Level Estimated
Sun 01:57:00 PM 25.0584 -89.6719 316° Northwest  Level Estimated
Sun 01:58:00 PM 25.1395 -89.7594 316° Northwest  Level Estimated
Sun 01:59:00 PM 25.2205 -89.8470 316° Northwest  Level Estimated
Sun 02:00:00 PM 25.3015 -89.9347 316° Northwest  Level Estimated
Sun 02:01:00 PM 25.3825 -90.0226 316° Northwest  Level Estimated
Sun 02:02:00 PM 25.4634 -90.1105 316° Northwest  Level Estimated
Sun 02:03:00 PM 25.5443 -90.1986 316° Northwest  Level Estimated
Sun 02:04:00 PM 25.6250 -90.2868 315° West  Level Estimated
Sun 02:05:00 PM 25.7058 -90.3751 315° West  Level Estimated
Sun 02:06:00 PM 25.7865 -90.4635 315° West  Level Estimated
Sun 02:07:00 PM 25.8671 -90.5520 315° West  Level Estimated
Sun 02:08:00 PM 25.9477 -90.6407 315° West  Level Estimated
Sun 02:09:00 PM 26.0282 -90.7295 315° West  Level Estimated
Sun 02:10:00 PM 26.1087 -90.8184 315° West  Level Estimated
Sun 02:11:00 PM 26.1891 -90.9074 315° West  Level Estimated
Sun 02:12:00 PM 26.2695 -90.9966 315° West  Level Estimated
Sun 02:13:00 PM 26.3498 -91.0859 315° West  Level Estimated
Sun 02:14:00 PM 26.4301 -91.1753 315° West  Level Estimated
Sun 02:15:00 PM 26.5103 -91.2648 315° West  Level Estimated
Sun 02:16:00 PM 26.5904 -91.3545 315° West  Level Estimated
Sun 02:17:00 PM 26.6705 -91.4443 315° West  Level Estimated
Sun 02:18:00 PM 26.7505 -91.5341 315° West  Level Estimated
Sun 02:19:00 PM 26.8305 -91.6242 315° West  Level Estimated
Sun 02:20:00 PM 26.9104 -91.7143 315° West  Level Estimated
Sun 02:21:00 PM 26.9903 -91.8046 315° West  Level Estimated
Sun 02:22:00 PM 27.0701 -91.8950 315° West  Level Estimated
Sun 02:23:00 PM 27.1498 -91.9856 315° West  Level Estimated
Sun 02:24:00 PM 27.2295 -92.0762 315° West  Level Estimated
Sun 02:25:00 PM 27.3091 -92.1671 315° West  Level Estimated
Sun 02:26:00 PM 27.3887 -92.2580 315° West  Level Estimated
Sun 02:27:00 PM 27.4682 -92.3490 315° West  Level Estimated
Sun 02:28:00 PM 27.5477 -92.4402 315° West  Level Estimated
Sun 02:29:00 PM 27.6271 -92.5316 314° West  Level Estimated
Sun 02:30:00 PM 27.7064 -92.6230 314° West  Level Estimated
Sun 02:31:00 PM 27.7857 -92.7146 314° West  Level Estimated
Sun 02:32:00 PM 27.8649 -92.8064 314° West  Level Estimated
Sun 02:33:00 PM 27.9440 -92.8982 314° West  Level Estimated
Sun 02:34:00 PM 28.0231 -92.9902 314° West  Level Estimated
Sun 02:35:00 PM 28.1021 -93.0823 314° West  Level Estimated
Sun 02:36:00 PM 28.1811 -93.1746 314° West  Level Estimated
Sun 02:37:00 PM 28.2600 -93.2670 314° West  Level Estimated
Sun 02:38:00 PM 28.3388 -93.3595 314° West  Level Estimated
Sun 02:39:00 PM 28.4176 -93.4522 314° West  Level Estimated
Sun 02:40:00 PM 28.4963 -93.5450 314° West  Level Estimated
Sun 02:41:00 PM 28.5750 -93.6380 314° West  Level Estimated
Sun 02:42:00 PM 28.6536 -93.7311 314° West  Level Estimated
Sun 02:43:00 PM 28.7321 -93.8243 314° West  Level Estimated
Sun 02:44:00 PM 28.8106 -93.9177 314° West  Level Estimated
Sun 02:45:00 PM 28.8890 -94.0112 314° West  Level Estimated
Sun 02:46:00 PM 28.9673 -94.1048 314° West  Level Estimated
Sun 02:47:00 PM 29.0456 -94.1986 314° West  Level Estimated
Sun 02:48:00 PM 29.1238 -94.2926 314° West  Level Estimated
Sun 02:49:00 PM 29.2019 -94.3867 314° West  Level Estimated
Sun 02:50:00 PM 29.2800 -94.4809 314° West  Level Estimated
Sun 02:51:00 PM 29.3580 -94.5752 313° West  Level Estimated
Sun 02:52:00 PM 29.4359 -94.6698 313° West  Level Estimated
Sun 02:53:00 PM 29.5138 -94.7644 313° West  Level Estimated
Sun 02:54:00 PM 29.5916 -94.8592 313° West  Level Estimated
Sun 02:55:00 PM 29.6693 -94.9542 313° West  Level Estimated
Sun 02:56:00 PM 29.7470 -95.0493 313° West  Level Estimated
Sun 02:57:00 PM 29.8246 -95.1445 313° West  Level Estimated
Sun 02:58:00 PM 29.9021 -95.2399 313° West  Level Estimated
Sun 02:59:00 PM 29.9796 -95.3354 313° West  Level Estimated
Sun 03:00:00 PM 29.9844 -95.3414 313° West  Level Estimated
Sun 03:01:00 PM 29.9844 -95.3414 319° Northwest  Level Estimated
Sun 03:02:00 PM 29.9844 -95.3414 319° Northwest  Level Estimated
Sun 03:03:00 PM 29.9844 -95.3414 319° Northwest  Level Estimated
Sun 03:04:00 PM 29.9844 -95.3414 319° Northwest  Level Estimated
Sun 03:05:00 PM 29.9844 -95.3414 319° Northwest  Level Estimated
Sun 03:06:00 PM 29.9844 -95.3414 319° Northwest  Level Estimated
Sun 03:07:00 PM 29.9844 -95.3414 319° Northwest  Level Estimated
Sun 03:08:00 PM 29.9844 -95.3414 319° Northwest  Level Estimated
Sun 03:09:00 PM 29.9844 -95.3414 319° Northwest  Level Estimated
Sun 03:10:00 PM 29.9844 -95.3414 319° Northwest  Level Estimated
Sun 03:11:00 PM 29.9844 -95.3414 319° Northwest  Level Estimated
Sun 03:12:00 PM 29.9844 -95.3414 319° Northwest  Level Estimated
Sun 03:13:00 PM 29.9844 -95.3414 319° Northwest  Level Estimated
Sun 03:14:00 PM 29.9844 -95.3414 319° Northwest  Level Estimated
Sun 03:15:00 PM 29.9844 -95.3414 319° Northwest  Level Estimated

Login

Don't have an account? Register now (free) for customized features, flight alerts, and more!